James Turecamo — WDC7565 — position and weather

sailwx.info

Track history (hours):
 
Tides and Currents Weather Stations Pressure Air Temp Water Temp Dewpoint Dewpoint Depression Visibility Wind Speed Wind Dir Waves Ship Positions

James Turecamo

Owner: Moran Towing Corporation, New Canaan, CT. More information available from US FCC via Universal Licensing System and Coast Guard Vessel Documentation Center.

Last reported at 2017-Jan-17 20:33 UTC. Time now 2017-Jan-17 21:26 UTC.
Position N 40°38' W 074°08'.

Length 30 m; draft 4.5 m.

Type: Tug. MMSI: 367073380.

Date/timePositionNaut miles runAvg speedWind from/ knotsBaromVisibWave heightAir tempDewpointWater temp
2017-Jan-17 20:33N 40°38' W 074°08'0 0.0
2017-Jan-17 19:33N 40°38' W 074°08'0 0.0
2017-Jan-17 18:32N 40°38' W 074°08'0 0.0
2017-Jan-17 17:33N 40°38' W 074°08'0 0.0
2017-Jan-17 16:33N 40°38' W 074°08'0 0.0
2017-Jan-17 15:32N 40°38' W 074°08'0 0.0
2017-Jan-17 14:33N 40°38' W 074°08'4 2.7
2017-Jan-17 13:15N 40°38' W 074°12'3 3.9
2017-Jan-17 12:33N 40°39' W 074°09'1 1.0
2017-Jan-17 11:33N 40°38' W 074°08'0 0.0
2017-Jan-17 10:33N 40°38' W 074°08'3 3.4
2017-Jan-17 09:33N 40°38' W 074°12'3 3.4
2017-Jan-17 08:33N 40°38' W 074°08'0 0.0
2017-Jan-17 07:33N 40°38' W 074°08'0 0.0
2017-Jan-17 06:33N 40°38' W 074°08'0 0.0
2017-Jan-17 05:33N 40°38' W 074°08'0 0.0
2017-Jan-17 04:32N 40°38' W 074°08'0 0.0
2017-Jan-17 03:33N 40°38' W 074°08'0 0.0
2017-Jan-17 02:33N 40°38' W 074°08'0 0.0
2017-Jan-17 01:33N 40°38' W 074°08'0 0.0
2017-Jan-17 00:33N 40°38' W 074°08'0 0.0
2017-Jan-16 23:32N 40°38' W 074°08'0 0.0
2017-Jan-16 22:33N 40°38' W 074°08'0 0.0
2017-Jan-16 21:33N 40°38' W 074°08'0 0.0
2017-Jan-16 20:33N 40°38' W 074°08'0 0.0
2017-Jan-16 19:33N 40°38' W 074°08'0 0.0
2017-Jan-16 18:33N 40°38' W 074°08'0 0.0
2017-Jan-16 17:32N 40°38' W 074°08'0 0.0
2017-Jan-16 16:33N 40°38' W 074°08'0 0.0
2017-Jan-16 15:33N 40°38' W 074°08'0 0.0
2017-Jan-16 14:33N 40°38' W 074°08'0 0.0
2017-Jan-16 13:33N 40°38' W 074°08'0 0.0
2017-Jan-16 12:33N 40°38' W 074°08'0 0.0
2017-Jan-16 11:33N 40°38' W 074°08'0 0.0
2017-Jan-16 10:33N 40°38' W 074°08'0 0.0
2017-Jan-16 09:33N 40°38' W 074°08'0 0.0
2017-Jan-16 08:33N 40°38' W 074°08'0 0.0
2017-Jan-16 07:33N 40°38' W 074°08'0 0.3
2017-Jan-16 06:33N 40°39' W 074°08'3 2.8
2017-Jan-16 05:33N 40°38' W 074°12'3 3.0
2017-Jan-16 04:33N 40°38' W 074°08'0 0.0
2017-Jan-16 03:33N 40°38' W 074°08'0 0.0
2017-Jan-16 02:33N 40°38' W 074°08'0 0.0
2017-Jan-16 01:33N 40°38' W 074°08'7 5.7
2017-Jan-16 00:25N 40°33' W 074°13'1 1.3
2017-Jan-15 23:23N 40°33' W 074°15'4 4.7
2017-Jan-15 22:29N 40°36' W 074°12'4 3.3
2017-Jan-15 21:18N 40°38' W 074°08'0 0.0
2017-Jan-15 20:21N 40°38' W 074°08'0 0.0
2017-Jan-15 19:29N 40°38' W 074°08'0 0.0
2017-Jan-15 18:33N 40°38' W 074°08'0 0.0
2017-Jan-15 17:33N 40°38' W 074°08'0 0.0
2017-Jan-15 16:33N 40°38' W 074°08'0 0.0
2017-Jan-15 15:33N 40°38' W 074°08'2 2.5
2017-Jan-15 14:33N 40°39' W 074°05'2 2.4
2017-Jan-15 13:33N 40°38' W 074°08'0 0.0
2017-Jan-15 12:33N 40°38' W 074°08'8 7.1
2017-Jan-15 11:27N 40°33' W 074°15'0 0.1
2017-Jan-15 10:32N 40°33' W 074°15'4 4.5
2017-Jan-15 09:33N 40°37' W 074°12'5 4.9
2017-Jan-15 08:33N 40°39' W 074°07'1 1.0
2017-Jan-15 07:32N 40°38' W 074°08'0 0.0
2017-Jan-15 06:33N 40°38' W 074°08'0 0.0
2017-Jan-15 05:32N 40°38' W 074°08'0 0.0
2017-Jan-15 04:31N 40°38' W 074°08'0 0.0
2017-Jan-15 03:31N 40°38' W 074°08'0 0.0
2017-Jan-15 02:33N 40°38' W 074°08'0 0.0
2017-Jan-15 01:33N 40°38' W 074°08'0 0.0
2017-Jan-15 00:33N 40°38' W 074°08'0 0.0
2017-Jan-14 23:33N 40°38' W 074°08'0 0.0
2017-Jan-14 22:33N 40°38' W 074°08'0 0.0
2017-Jan-14 21:33N 40°38' W 074°08'0 0.0
2017-Jan-14 20:33N 40°38' W 074°08'0 0.0
2017-Jan-14 19:33N 40°38' W 074°08'0 0.0
2017-Jan-14 18:33N 40°38' W 074°08'0 0.0
2017-Jan-14 17:33N 40°38' W 074°08'0 0.0
2017-Jan-14 16:26N 40°38' W 074°08'0 0.0
2017-Jan-14 15:33N 40°38' W 074°08'1 0.9
2017-Jan-14 14:33N 40°39' W 074°07'1 1.4
2017-Jan-14 13:33N 40°39' W 074°05'1 1.0
2017-Jan-14 12:33N 40°39' W 074°06'1 1.3
2017-Jan-14 11:33N 40°38' W 074°08'0 0.0
2017-Jan-14 10:33N 40°38' W 074°08'0 0.0
2017-Jan-14 07:31N 40°38' W 074°08'0 0.0
2017-Jan-14 06:33N 40°38' W 074°08'0 0.0
2017-Jan-14 05:21N 40°38' W 074°08'0 0.0
2017-Jan-14 04:33N 40°38' W 074°08'3 3.0
2017-Jan-14 03:33N 40°40' W 074°04'3 0.7
2017-Jan-13 23:33N 40°41' W 074°08'2 2.3
2017-Jan-13 22:33N 40°38' W 074°08'0 0.0
2017-Jan-13 20:33N 40°38' W 074°08'0 0.0
2017-Jan-13 19:30N 40°38' W 074°08'0 0.0
2017-Jan-13 18:33N 40°38' W 074°08'0 0.0
2017-Jan-13 17:32N 40°38' W 074°08'0 0.4
2017-Jan-13 16:33N 40°39' W 074°07'0 0.4
2017-Jan-13 15:27N 40°38' W 074°08'3 3.2
2017-Jan-13 14:33N 40°40' W 074°04'1 0.7
2017-Jan-13 13:33N 40°39' W 074°04'3 2.9
2017-Jan-13 12:32N 40°38' W 074°08'0 0.0
2017-Jan-13 11:13N 40°38' W 074°08'0 0.0
2017-Jan-13 10:15N 40°38' W 074°08'0 0.0
2017-Jan-13 09:27N 40°38' W 074°08'3 3.8
2017-Jan-13 08:33N 40°38' W 074°12'1 1.3
2017-Jan-13 07:33N 40°39' W 074°11'3 2.4
2017-Jan-13 06:31N 40°38' W 074°08'0 0.0
2017-Jan-13 05:32N 40°38' W 074°08'1 1.3
2017-Jan-13 04:33N 40°40' W 074°09'2 2.3
2017-Jan-13 03:32N 40°42' W 074°09'0 0.0
2017-Jan-13 02:32N 40°42' W 074°09'1 0.7
2017-Jan-13 01:33N 40°41' W 074°08'3 2.9
2017-Jan-13 00:33N 40°38' W 074°08'4 3.8
2017-Jan-12 23:33N 40°39' W 074°03'4 3.7
2017-Jan-12 22:33N 40°38' W 074°08'0 0.0
2017-Jan-12 21:33N 40°38' W 074°08'0 0.0
2017-Jan-12 20:33N 40°38' W 074°08'0 0.0
2017-Jan-12 19:33N 40°38' W 074°08'0 0.0
2017-Jan-12 18:31N 40°38' W 074°08'0 0.0
2017-Jan-12 17:33N 40°38' W 074°08'0 0.2
2017-Jan-12 16:33N 40°39' W 074°08'1110.5
2017-Jan-12 15:33N 40°45' W 073°57'1 0.8
2017-Jan-12 14:33N 40°45' W 073°58'4 3.9
2017-Jan-12 13:33N 40°41' W 074°00'6 6.0
2017-Jan-12 12:33N 40°39' W 074°07'0 0.2
2017-Jan-12 10:18N 40°38' W 074°08'0 0.0
2017-Jan-12 09:32N 40°38' W 074°08'0 0.0
2017-Jan-12 08:32N 40°38' W 074°08'0 0.0
2017-Jan-12 07:33N 40°38' W 074°08'0 0.0
2017-Jan-12 06:33N 40°38' W 074°08'0 0.0
2017-Jan-12 05:32N 40°38' W 074°08'0 0.1
2017-Jan-12 04:33N 40°38' W 074°08'3 3.4
2017-Jan-12 03:33N 40°38' W 074°12'3 3.4
2017-Jan-12 02:33N 40°38' W 074°08'3 2.9
2017-Jan-12 01:33N 40°39' W 074°04'1 0.9
2017-Jan-12 00:33N 40°39' W 074°05'2 1.0
2017-Jan-11 22:18N 40°38' W 074°08'0 0.0
2017-Jan-11 20:32N 40°38' W 074°08'0 0.0
2017-Jan-11 19:33N 40°38' W 074°08'4 4.2
2017-Jan-11 18:33N 40°40' W 074°03'4 4.1
2017-Jan-11 17:33N 40°38' W 074°08'0 0.0
2017-Jan-11 16:33N 40°38' W 074°08'0 0.0
2017-Jan-11 15:32N 40°38' W 074°08'2 2.1
2017-Jan-11 14:33N 40°39' W 074°05'4 4.4
2017-Jan-11 13:34N 40°42' W 074°00'5 4.8
2017-Jan-11 12:33N 40°46' W 073°57'2 2.4
2017-Jan-11 11:33N 40°43' W 073°58'9 8.8
2017-Jan-11 10:34N 40°38' W 074°08'0 0.0
2017-Jan-11 09:33N 40°38' W 074°08'0 0.0
2017-Jan-11 08:32N 40°38' W 074°08'0 0.0
2017-Jan-11 07:33N 40°38' W 074°08'0 0.0
2017-Jan-11 06:33N 40°38' W 074°08'0 0.0
2017-Jan-11 05:32N 40°38' W 074°08'0 0.0
2017-Jan-11 04:32N 40°38' W 074°08'0 0.0
2017-Jan-11 03:33N 40°38' W 074°08'0 0.0
2017-Jan-11 02:33N 40°38' W 074°08'0 0.0
2017-Jan-11 01:33N 40°38' W 074°08'0 0.0
2017-Jan-11 00:33N 40°38' W 074°08'7 6.9
2017-Jan-10 23:33N 40°43' W 074°01'9 9.3
2017-Jan-10 22:33N 40°52' W 073°57'4 3.8
2017-Jan-10 21:27N 40°56' W 073°54'0 0.1
2017-Jan-10 19:23N 40°56' W 073°54'0 0.0
2017-Jan-10 18:31N 40°56' W 073°54'0 0.0
2017-Jan-10 17:33N 40°56' W 073°54'0 0.1
2017-Jan-10 15:31N 40°56' W 073°55'1010.0
2017-Jan-10 14:33N 40°47' W 073°60'10 9.8
2017-Jan-10 13:33N 40°37' W 074°04'3 0.6
2017-Jan-10 08:24N 40°38' W 074°08'0 0.0
2017-Jan-10 07:21N 40°38' W 074°08'0 0.0
2017-Jan-10 06:30N 40°38' W 074°08'0 0.0
2017-Jan-10 05:33N 40°38' W 074°08'0 0.0
2017-Jan-10 04:33N 40°38' W 074°08'0 0.0
2017-Jan-10 03:32N 40°38' W 074°08'0 0.0
2017-Jan-10 02:33N 40°38' W 074°08'0 0.0
2017-Jan-10 01:33N 40°38' W 074°08'0 0.0
2017-Jan-10 00:33N 40°38' W 074°08'0 0.0
2017-Jan-09 23:33N 40°38' W 074°08'0 0.0
2017-Jan-09 22:33N 40°38' W 074°08'0 0.0
2017-Jan-09 21:33N 40°38' W 074°08'0 0.0
2017-Jan-09 20:32N 40°38' W 074°08'0 0.0
2017-Jan-09 19:33N 40°38' W 074°08'0 0.0
2017-Jan-09 18:34N 40°38' W 074°08'0 0.0
2017-Jan-09 17:33N 40°38' W 074°08'0 0.0
2017-Jan-09 16:33N 40°38' W 074°08'0 0.0
2017-Jan-09 15:33N 40°38' W 074°08'0 0.0
2017-Jan-09 14:33N 40°38' W 074°08'0 0.0
2017-Jan-09 13:34N 40°38' W 074°08'0 0.0
2017-Jan-09 12:33N 40°38' W 074°08'0 0.0
2017-Jan-09 11:33N 40°38' W 074°08'0 0.0
2017-Jan-09 10:33N 40°38' W 074°08'0 0.0
2017-Jan-09 09:33N 40°38' W 074°08'0 0.0
2017-Jan-09 08:33N 40°38' W 074°08'0 0.0
2017-Jan-09 07:33N 40°38' W 074°08'0 0.0
2017-Jan-09 06:33N 40°38' W 074°08'0 0.0
2017-Jan-09 01:33N 40°38' W 074°08'0 0.1
2017-Jan-09 00:28N 40°38' W 074°08'4 3.4
2017-Jan-08 23:27N 40°42' W 074°09'0 0.0
2017-Jan-08 22:32N 40°42' W 074°09'4 3.7
2017-Jan-08 21:33N 40°38' W 074°08'0 0.0
2017-Jan-08 20:33N 40°38' W 074°08'0 0.0
2017-Jan-08 19:33N 40°38' W 074°08'0 0.0
2017-Jan-08 18:33N 40°38' W 074°08'0 0.0
2017-Jan-08 17:33N 40°38' W 074°08'0 0.0
2017-Jan-08 16:33N 40°38' W 074°08'0 0.0
2017-Jan-08 15:33N 40°38' W 074°08'0 0.0
2017-Jan-08 14:33N 40°38' W 074°08'0 0.0
2017-Jan-08 13:33N 40°38' W 074°08'0 0.0
2017-Jan-08 12:33N 40°38' W 074°08'0 0.0
2017-Jan-08 11:19N 40°38' W 074°08'0 0.0
2017-Jan-08 10:32N 40°38' W 074°08'0 0.0
2017-Jan-08 09:21N 40°38' W 074°08'0 0.0
2017-Jan-08 08:31N 40°38' W 074°08'4 4.5
2017-Jan-08 07:33N 40°43' W 074°07'1 1.0
2017-Jan-08 06:33N 40°42' W 074°07'3 3.3
2017-Jan-08 05:32N 40°38' W 074°08'0 0.0
2017-Jan-08 04:33N 40°38' W 074°08'1 0.6
2017-Jan-08 03:33N 40°39' W 074°09'3 3.1
2017-Jan-08 02:32N 40°42' W 074°08'0 0.2
2017-Jan-08 01:33N 40°42' W 074°09'3 3.5
2017-Jan-08 00:33N 40°38' W 074°08'0 0.0
2017-Jan-07 22:24N 40°38' W 074°08'0 0.0
2017-Jan-07 20:33N 40°38' W 074°08'  
Track history (hours):
 
Tides and Currents Weather Stations Pressure Air Temp Water Temp Dewpoint Dewpoint Depression Visibility Wind Speed Wind Dir Waves Ship Positions

James Turecamo

Owner: Moran Towing Corporation, New Canaan, CT. More information available from US FCC via Universal Licensing System and Coast Guard Vessel Documentation Center.

Last reported at 2017-Jan-17 20:33 UTC. Time now 2017-Jan-17 21:26 UTC.
Position N 40°38' W 074°08'.

Length 30 m; draft 4.5 m.

Type: Tug. MMSI: 367073380.

Date/timePositionNaut miles runAvg speedWind from/ knotsBaromVisibWave heightAir tempDewpointWater temp
2017-Jan-17 20:33N 40°38' W 074°08'0 0.0
2017-Jan-17 19:33N 40°38' W 074°08'0 0.0
2017-Jan-17 18:32N 40°38' W 074°08'0 0.0
2017-Jan-17 17:33N 40°38' W 074°08'0 0.0
2017-Jan-17 16:33N 40°38' W 074°08'0 0.0
2017-Jan-17 15:32N 40°38' W 074°08'0 0.0
2017-Jan-17 14:33N 40°38' W 074°08'4 2.7
2017-Jan-17 13:15N 40°38' W 074°12'3 3.9
2017-Jan-17 12:33N 40°39' W 074°09'1 1.0
2017-Jan-17 11:33N 40°38' W 074°08'0 0.0
2017-Jan-17 10:33N 40°38' W 074°08'3 3.4
2017-Jan-17 09:33N 40°38' W 074°12'3 3.4
2017-Jan-17 08:33N 40°38' W 074°08'0 0.0
2017-Jan-17 07:33N 40°38' W 074°08'0 0.0
2017-Jan-17 06:33N 40°38' W 074°08'0 0.0
2017-Jan-17 05:33N 40°38' W 074°08'0 0.0
2017-Jan-17 04:32N 40°38' W 074°08'0 0.0
2017-Jan-17 03:33N 40°38' W 074°08'0 0.0
2017-Jan-17 02:33N 40°38' W 074°08'0 0.0
2017-Jan-17 01:33N 40°38' W 074°08'0 0.0
2017-Jan-17 00:33N 40°38' W 074°08'0 0.0
2017-Jan-16 23:32N 40°38' W 074°08'0 0.0
2017-Jan-16 22:33N 40°38' W 074°08'0 0.0
2017-Jan-16 21:33N 40°38' W 074°08'0 0.0
2017-Jan-16 20:33N 40°38' W 074°08'0 0.0
2017-Jan-16 19:33N 40°38' W 074°08'0 0.0
2017-Jan-16 18:33N 40°38' W 074°08'0 0.0
2017-Jan-16 17:32N 40°38' W 074°08'0 0.0
2017-Jan-16 16:33N 40°38' W 074°08'0 0.0
2017-Jan-16 15:33N 40°38' W 074°08'0 0.0
2017-Jan-16 14:33N 40°38' W 074°08'0 0.0
2017-Jan-16 13:33N 40°38' W 074°08'0 0.0
2017-Jan-16 12:33N 40°38' W 074°08'0 0.0
2017-Jan-16 11:33N 40°38' W 074°08'0 0.0
2017-Jan-16 10:33N 40°38' W 074°08'0 0.0
2017-Jan-16 09:33N 40°38' W 074°08'0 0.0
2017-Jan-16 08:33N 40°38' W 074°08'0 0.0
2017-Jan-16 07:33N 40°38' W 074°08'0 0.3
2017-Jan-16 06:33N 40°39' W 074°08'3 2.8
2017-Jan-16 05:33N 40°38' W 074°12'3 3.0
2017-Jan-16 04:33N 40°38' W 074°08'0 0.0
2017-Jan-16 03:33N 40°38' W 074°08'0 0.0
2017-Jan-16 02:33N 40°38' W 074°08'0 0.0
2017-Jan-16 01:33N 40°38' W 074°08'7 5.7
2017-Jan-16 00:25N 40°33' W 074°13'1 1.3
2017-Jan-15 23:23N 40°33' W 074°15'4 4.7
2017-Jan-15 22:29N 40°36' W 074°12'4 3.3
2017-Jan-15 21:18N 40°38' W 074°08'0 0.0
2017-Jan-15 20:21N 40°38' W 074°08'0 0.0
2017-Jan-15 19:29N 40°38' W 074°08'0 0.0
2017-Jan-15 18:33N 40°38' W 074°08'0 0.0
2017-Jan-15 17:33N 40°38' W 074°08'0 0.0
2017-Jan-15 16:33N 40°38' W 074°08'0 0.0
2017-Jan-15 15:33N 40°38' W 074°08'2 2.5
2017-Jan-15 14:33N 40°39' W 074°05'2 2.4
2017-Jan-15 13:33N 40°38' W 074°08'0 0.0
2017-Jan-15 12:33N 40°38' W 074°08'8 7.1
2017-Jan-15 11:27N 40°33' W 074°15'0 0.1
2017-Jan-15 10:32N 40°33' W 074°15'4 4.5
2017-Jan-15 09:33N 40°37' W 074°12'5 4.9
2017-Jan-15 08:33N 40°39' W 074°07'1 1.0
2017-Jan-15 07:32N 40°38' W 074°08'0 0.0
2017-Jan-15 06:33N 40°38' W 074°08'0 0.0
2017-Jan-15 05:32N 40°38' W 074°08'0 0.0
2017-Jan-15 04:31N 40°38' W 074°08'0 0.0
2017-Jan-15 03:31N 40°38' W 074°08'0 0.0
2017-Jan-15 02:33N 40°38' W 074°08'0 0.0
2017-Jan-15 01:33N 40°38' W 074°08'0 0.0
2017-Jan-15 00:33N 40°38' W 074°08'0 0.0
2017-Jan-14 23:33N 40°38' W 074°08'0 0.0
2017-Jan-14 22:33N 40°38' W 074°08'0 0.0
2017-Jan-14 21:33N 40°38' W 074°08'0 0.0
2017-Jan-14 20:33N 40°38' W 074°08'0 0.0
2017-Jan-14 19:33N 40°38' W 074°08'0 0.0
2017-Jan-14 18:33N 40°38' W 074°08'0 0.0
2017-Jan-14 17:33N 40°38' W 074°08'0 0.0
2017-Jan-14 16:26N 40°38' W 074°08'0 0.0
2017-Jan-14 15:33N 40°38' W 074°08'1 0.9
2017-Jan-14 14:33N 40°39' W 074°07'1 1.4
2017-Jan-14 13:33N 40°39' W 074°05'1 1.0
2017-Jan-14 12:33N 40°39' W 074°06'1 1.3
2017-Jan-14 11:33N 40°38' W 074°08'0 0.0
2017-Jan-14 10:33N 40°38' W 074°08'0 0.0
2017-Jan-14 07:31N 40°38' W 074°08'0 0.0
2017-Jan-14 06:33N 40°38' W 074°08'0 0.0
2017-Jan-14 05:21N 40°38' W 074°08'0 0.0
2017-Jan-14 04:33N 40°38' W 074°08'3 3.0
2017-Jan-14 03:33N 40°40' W 074°04'3 0.7
2017-Jan-13 23:33N 40°41' W 074°08'2 2.3
2017-Jan-13 22:33N 40°38' W 074°08'0 0.0
2017-Jan-13 20:33N 40°38' W 074°08'0 0.0
2017-Jan-13 19:30N 40°38' W 074°08'0 0.0
2017-Jan-13 18:33N 40°38' W 074°08'0 0.0
2017-Jan-13 17:32N 40°38' W 074°08'0 0.4
2017-Jan-13 16:33N 40°39' W 074°07'0 0.4
2017-Jan-13 15:27N 40°38' W 074°08'3 3.2
2017-Jan-13 14:33N 40°40' W 074°04'1 0.7
2017-Jan-13 13:33N 40°39' W 074°04'3 2.9
2017-Jan-13 12:32N 40°38' W 074°08'0 0.0
2017-Jan-13 11:13N 40°38' W 074°08'0 0.0
2017-Jan-13 10:15N 40°38' W 074°08'0 0.0
2017-Jan-13 09:27N 40°38' W 074°08'3 3.8
2017-Jan-13 08:33N 40°38' W 074°12'1 1.3
2017-Jan-13 07:33N 40°39' W 074°11'3 2.4
2017-Jan-13 06:31N 40°38' W 074°08'0 0.0
2017-Jan-13 05:32N 40°38' W 074°08'1 1.3
2017-Jan-13 04:33N 40°40' W 074°09'2 2.3
2017-Jan-13 03:32N 40°42' W 074°09'0 0.0
2017-Jan-13 02:32N 40°42' W 074°09'1 0.7
2017-Jan-13 01:33N 40°41' W 074°08'3 2.9
2017-Jan-13 00:33N 40°38' W 074°08'4 3.8
2017-Jan-12 23:33N 40°39' W 074°03'4 3.7
2017-Jan-12 22:33N 40°38' W 074°08'0 0.0
2017-Jan-12 21:33N 40°38' W 074°08'0 0.0
2017-Jan-12 20:33N 40°38' W 074°08'0 0.0
2017-Jan-12 19:33N 40°38' W 074°08'0 0.0
2017-Jan-12 18:31N 40°38' W 074°08'0 0.0
2017-Jan-12 17:33N 40°38' W 074°08'0 0.2
2017-Jan-12 16:33N 40°39' W 074°08'1110.5
2017-Jan-12 15:33N 40°45' W 073°57'1 0.8
2017-Jan-12 14:33N 40°45' W 073°58'4 3.9
2017-Jan-12 13:33N 40°41' W 074°00'6 6.0
2017-Jan-12 12:33N 40°39' W 074°07'0 0.2
2017-Jan-12 10:18N 40°38' W 074°08'0 0.0
2017-Jan-12 09:32N 40°38' W 074°08'0 0.0
2017-Jan-12 08:32N 40°38' W 074°08'0 0.0
2017-Jan-12 07:33N 40°38' W 074°08'0 0.0
2017-Jan-12 06:33N 40°38' W 074°08'0 0.0
2017-Jan-12 05:32N 40°38' W 074°08'0 0.1
2017-Jan-12 04:33N 40°38' W 074°08'3 3.4
2017-Jan-12 03:33N 40°38' W 074°12'3 3.4
2017-Jan-12 02:33N 40°38' W 074°08'3 2.9
2017-Jan-12 01:33N 40°39' W 074°04'1 0.9
2017-Jan-12 00:33N 40°39' W 074°05'2 1.0
2017-Jan-11 22:18N 40°38' W 074°08'0 0.0
2017-Jan-11 20:32N 40°38' W 074°08'0 0.0
2017-Jan-11 19:33N 40°38' W 074°08'4 4.2
2017-Jan-11 18:33N 40°40' W 074°03'4 4.1
2017-Jan-11 17:33N 40°38' W 074°08'0 0.0
2017-Jan-11 16:33N 40°38' W 074°08'0 0.0
2017-Jan-11 15:32N 40°38' W 074°08'2 2.1
2017-Jan-11 14:33N 40°39' W 074°05'4 4.4
2017-Jan-11 13:34N 40°42' W 074°00'5 4.8
2017-Jan-11 12:33N 40°46' W 073°57'2 2.4
2017-Jan-11 11:33N 40°43' W 073°58'9 8.8
2017-Jan-11 10:34N 40°38' W 074°08'0 0.0
2017-Jan-11 09:33N 40°38' W 074°08'0 0.0
2017-Jan-11 08:32N 40°38' W 074°08'0 0.0
2017-Jan-11 07:33N 40°38' W 074°08'0 0.0
2017-Jan-11 06:33N 40°38' W 074°08'0 0.0
2017-Jan-11 05:32N 40°38' W 074°08'0 0.0
2017-Jan-11 04:32N 40°38' W 074°08'0 0.0
2017-Jan-11 03:33N 40°38' W 074°08'0 0.0
2017-Jan-11 02:33N 40°38' W 074°08'0 0.0
2017-Jan-11 01:33N 40°38' W 074°08'0 0.0
2017-Jan-11 00:33N 40°38' W 074°08'7 6.9
2017-Jan-10 23:33N 40°43' W 074°01'9 9.3
2017-Jan-10 22:33N 40°52' W 073°57'4 3.8
2017-Jan-10 21:27N 40°56' W 073°54'0 0.1
2017-Jan-10 19:23N 40°56' W 073°54'0 0.0
2017-Jan-10 18:31N 40°56' W 073°54'0 0.0
2017-Jan-10 17:33N 40°56' W 073°54'0 0.1
2017-Jan-10 15:31N 40°56' W 073°55'1010.0
2017-Jan-10 14:33N 40°47' W 073°60'10 9.8
2017-Jan-10 13:33N 40°37' W 074°04'3 0.6
2017-Jan-10 08:24N 40°38' W 074°08'0 0.0
2017-Jan-10 07:21N 40°38' W 074°08'0 0.0
2017-Jan-10 06:30N 40°38' W 074°08'0 0.0
2017-Jan-10 05:33N 40°38' W 074°08'0 0.0
2017-Jan-10 04:33N 40°38' W 074°08'0 0.0
2017-Jan-10 03:32N 40°38' W 074°08'0 0.0
2017-Jan-10 02:33N 40°38' W 074°08'0 0.0
2017-Jan-10 01:33N 40°38' W 074°08'0 0.0
2017-Jan-10 00:33N 40°38' W 074°08'0 0.0
2017-Jan-09 23:33N 40°38' W 074°08'0 0.0
2017-Jan-09 22:33N 40°38' W 074°08'0 0.0
2017-Jan-09 21:33N 40°38' W 074°08'0 0.0
2017-Jan-09 20:32N 40°38' W 074°08'0 0.0
2017-Jan-09 19:33N 40°38' W 074°08'0 0.0
2017-Jan-09 18:34N 40°38' W 074°08'0 0.0
2017-Jan-09 17:33N 40°38' W 074°08'0 0.0
2017-Jan-09 16:33N 40°38' W 074°08'0 0.0
2017-Jan-09 15:33N 40°38' W 074°08'0 0.0
2017-Jan-09 14:33N 40°38' W 074°08'0 0.0
2017-Jan-09 13:34N 40°38' W 074°08'0 0.0
2017-Jan-09 12:33N 40°38' W 074°08'0 0.0
2017-Jan-09 11:33N 40°38' W 074°08'0 0.0
2017-Jan-09 10:33N 40°38' W 074°08'0 0.0
2017-Jan-09 09:33N 40°38' W 074°08'0 0.0
2017-Jan-09 08:33N 40°38' W 074°08'0 0.0
2017-Jan-09 07:33N 40°38' W 074°08'0 0.0
2017-Jan-09 06:33N 40°38' W 074°08'0 0.0
2017-Jan-09 01:33N 40°38' W 074°08'0 0.1
2017-Jan-09 00:28N 40°38' W 074°08'4 3.4
2017-Jan-08 23:27N 40°42' W 074°09'0 0.0
2017-Jan-08 22:32N 40°42' W 074°09'4 3.7
2017-Jan-08 21:33N 40°38' W 074°08'0 0.0
2017-Jan-08 20:33N 40°38' W 074°08'0 0.0
2017-Jan-08 19:33N 40°38' W 074°08'0 0.0
2017-Jan-08 18:33N 40°38' W 074°08'0 0.0
2017-Jan-08 17:33N 40°38' W 074°08'0 0.0
2017-Jan-08 16:33N 40°38' W 074°08'0 0.0
2017-Jan-08 15:33N 40°38' W 074°08'0 0.0
2017-Jan-08 14:33N 40°38' W 074°08'0 0.0
2017-Jan-08 13:33N 40°38' W 074°08'0 0.0
2017-Jan-08 12:33N 40°38' W 074°08'0 0.0
2017-Jan-08 11:19N 40°38' W 074°08'0 0.0
2017-Jan-08 10:32N 40°38' W 074°08'0 0.0
2017-Jan-08 09:21N 40°38' W 074°08'0 0.0
2017-Jan-08 08:31N 40°38' W 074°08'4 4.5
2017-Jan-08 07:33N 40°43' W 074°07'1 1.0
2017-Jan-08 06:33N 40°42' W 074°07'3 3.3
2017-Jan-08 05:32N 40°38' W 074°08'0 0.0
2017-Jan-08 04:33N 40°38' W 074°08'1 0.6
2017-Jan-08 03:33N 40°39' W 074°09'3 3.1
2017-Jan-08 02:32N 40°42' W 074°08'0 0.2
2017-Jan-08 01:33N 40°42' W 074°09'3 3.5
2017-Jan-08 00:33N 40°38' W 074°08'0 0.0
2017-Jan-07 22:24N 40°38' W 074°08'0 0.0
2017-Jan-07 20:33N 40°38' W 074°08'  

Dump ship's entire track history